sensor_id;sensor_type;location;lat;lon;timestamp;P1;durP1;ratioP1;P2;durP2;ratioP2
7517;SDS011;3800;48.922;9.444;2022-12-07T00:00:52;10.20;;;9.10;;
7517;SDS011;3800;48.922;9.444;2022-12-07T00:03:20;11.17;;;9.90;;
7517;SDS011;3800;48.922;9.444;2022-12-07T00:05:47;12.67;;;9.50;;
7517;SDS011;3800;48.922;9.444;2022-12-07T00:08:15;9.93;;;8.93;;
7517;SDS011;3800;48.922;9.444;2022-12-07T00:10:43;10.57;;;9.40;;
7517;SDS011;3800;48.922;9.444;2022-12-07T00:13:10;11.33;;;10.17;;
7517;SDS011;3800;48.922;9.444;2022-12-07T00:15:38;12.17;;;9.60;;
7517;SDS011;3800;48.922;9.444;2022-12-07T00:18:06;14.03;;;10.47;;
7517;SDS011;3800;48.922;9.444;2022-12-07T00:20:33;14.60;;;10.80;;
7517;SDS011;3800;48.922;9.444;2022-12-07T00:23:01;11.07;;;9.67;;
7517;SDS011;3800;48.922;9.444;2022-12-07T00:25:29;11.90;;;10.13;;
7517;SDS011;3800;48.922;9.444;2022-12-07T00:27:56;11.60;;;9.93;;
7517;SDS011;3800;48.922;9.444;2022-12-07T00:30:24;13.17;;;10.20;;
7517;SDS011;3800;48.922;9.444;2022-12-07T00:32:51;11.30;;;10.00;;
7517;SDS011;3800;48.922;9.444;2022-12-07T00:35:19;11.20;;;9.83;;
7517;SDS011;3800;48.922;9.444;2022-12-07T00:37:47;11.60;;;9.67;;
7517;SDS011;3800;48.922;9.444;2022-12-07T00:40:14;10.37;;;9.13;;
7517;SDS011;3800;48.922;9.444;2022-12-07T00:42:42;12.17;;;10.27;;
7517;SDS011;3800;48.922;9.444;2022-12-07T00:45:10;11.73;;;9.73;;
7517;SDS011;3800;48.922;9.444;2022-12-07T00:47:37;10.97;;;9.67;;
7517;SDS011;3800;48.922;9.444;2022-12-07T00:50:05;11.27;;;10.07;;
7517;SDS011;3800;48.922;9.444;2022-12-07T00:52:33;11.30;;;9.33;;
7517;SDS011;3800;48.922;9.444;2022-12-07T00:55:02;10.80;;;9.63;;
7517;SDS011;3800;48.922;9.444;2022-12-07T00:57:30;10.93;;;9.57;;
7517;SDS011;3800;48.922;9.444;2022-12-07T00:59:58;11.10;;;9.90;;
7517;SDS011;3800;48.922;9.444;2022-12-07T01:02:26;10.83;;;9.73;;
7517;SDS011;3800;48.922;9.444;2022-12-07T01:04:53;12.63;;;10.10;;
7517;SDS011;3800;48.922;9.444;2022-12-07T01:07:21;11.23;;;9.87;;
7517;SDS011;3800;48.922;9.444;2022-12-07T01:09:49;10.07;;;9.07;;
7517;SDS011;3800;48.922;9.444;2022-12-07T01:12:16;10.63;;;9.20;;
7517;SDS011;3800;48.922;9.444;2022-12-07T01:14:44;10.57;;;9.47;;
7517;SDS011;3800;48.922;9.444;2022-12-07T01:17:11;10.13;;;8.77;;
7517;SDS011;3800;48.922;9.444;2022-12-07T01:19:39;11.50;;;10.00;;
7517;SDS011;3800;48.922;9.444;2022-12-07T01:22:07;10.77;;;9.57;;
7517;SDS011;3800;48.922;9.444;2022-12-07T01:24:34;11.27;;;9.70;;
7517;SDS011;3800;48.922;9.444;2022-12-07T01:27:03;11.93;;;9.53;;
7517;SDS011;3800;48.922;9.444;2022-12-07T01:29:30;10.27;;;9.17;;
7517;SDS011;3800;48.922;9.444;2022-12-07T01:31:58;10.13;;;8.90;;
7517;SDS011;3800;48.922;9.444;2022-12-07T01:34:26;10.90;;;9.80;;
7517;SDS011;3800;48.922;9.444;2022-12-07T01:36:53;11.60;;;10.40;;
7517;SDS011;3800;48.922;9.444;2022-12-07T01:39:21;13.50;;;12.07;;
7517;SDS011;3800;48.922;9.444;2022-12-07T01:41:49;13.03;;;11.60;;
7517;SDS011;3800;48.922;9.444;2022-12-07T01:46:51;12.03;;;10.53;;
7517;SDS011;3800;48.922;9.444;2022-12-07T01:49:21;11.77;;;9.93;;
7517;SDS011;3800;48.922;9.444;2022-12-07T01:51:48;11.33;;;9.43;;
7517;SDS011;3800;48.922;9.444;2022-12-07T01:54:16;10.27;;;9.10;;
7517;SDS011;3800;48.922;9.444;2022-12-07T01:56:47;13.13;;;9.13;;
7517;SDS011;3800;48.922;9.444;2022-12-07T01:59:12;12.13;;;9.20;;
7517;SDS011;3800;48.922;9.444;2022-12-07T02:01:40;10.60;;;9.50;;
7517;SDS011;3800;48.922;9.444;2022-12-07T02:04:07;11.27;;;9.10;;
7517;SDS011;3800;48.922;9.444;2022-12-07T02:06:35;11.73;;;9.90;;
7517;SDS011;3800;48.922;9.444;2022-12-07T02:09:03;11.70;;;10.13;;
7517;SDS011;3800;48.922;9.444;2022-12-07T02:11:30;11.83;;;10.07;;
7517;SDS011;3800;48.922;9.444;2022-12-07T02:13:58;11.83;;;10.50;;
7517;SDS011;3800;48.922;9.444;2022-12-07T02:20:00;11.73;;;9.33;;
7517;SDS011;3800;48.922;9.444;2022-12-07T02:22:31;13.27;;;9.57;;
7517;SDS011;3800;48.922;9.444;2022-12-07T02:25:14;11.57;;;9.53;;
7517;SDS011;3800;48.922;9.444;2022-12-07T02:27:56;10.87;;;9.47;;
7517;SDS011;3800;48.922;9.444;2022-12-07T02:30:21;11.20;;;9.10;;
7517;SDS011;3800;48.922;9.444;2022-12-07T02:32:54;12.57;;;10.23;;
7517;SDS011;3800;48.922;9.444;2022-12-07T02:35:25;11.10;;;9.20;;
7517;SDS011;3800;48.922;9.444;2022-12-07T02:37:55;10.83;;;9.47;;
7517;SDS011;3800;48.922;9.444;2022-12-07T02:40:29;13.83;;;9.50;;
7517;SDS011;3800;48.922;9.444;2022-12-07T02:43:04;12.03;;;9.77;;
7517;SDS011;3800;48.922;9.444;2022-12-07T02:45:31;10.90;;;9.60;;
7517;SDS011;3800;48.922;9.444;2022-12-07T02:47:58;12.80;;;9.90;;
7517;SDS011;3800;48.922;9.444;2022-12-07T02:50:26;11.30;;;9.13;;
7517;SDS011;3800;48.922;9.444;2022-12-07T02:52:54;11.50;;;9.27;;
7517;SDS011;3800;48.922;9.444;2022-12-07T02:55:23;12.87;;;9.87;;
7517;SDS011;3800;48.922;9.444;2022-12-07T02:57:54;13.50;;;9.73;;
7517;SDS011;3800;48.922;9.444;2022-12-07T03:00:19;11.43;;;8.80;;
7517;SDS011;3800;48.922;9.444;2022-12-07T03:02:50;12.97;;;10.27;;
7517;SDS011;3800;48.922;9.444;2022-12-07T03:10:59;11.53;;;9.67;;
7517;SDS011;3800;48.922;9.444;2022-12-07T03:13:30;11.67;;;9.83;;
7517;SDS011;3800;48.922;9.444;2022-12-07T03:16:02;11.30;;;9.57;;
7517;SDS011;3800;48.922;9.444;2022-12-07T03:18:31;11.57;;;9.87;;
7517;SDS011;3800;48.922;9.444;2022-12-07T03:20:58;13.10;;;10.20;;
7517;SDS011;3800;48.922;9.444;2022-12-07T03:23:25;11.27;;;9.60;;
7517;SDS011;3800;48.922;9.444;2022-12-07T03:25:54;11.70;;;9.63;;
7517;SDS011;3800;48.922;9.444;2022-12-07T03:28:21;10.40;;;9.30;;
7517;SDS011;3800;48.922;9.444;2022-12-07T03:30:51;11.07;;;9.33;;
7517;SDS011;3800;48.922;9.444;2022-12-07T03:33:20;10.77;;;9.53;;
7517;SDS011;3800;48.922;9.444;2022-12-07T03:35:49;11.77;;;9.33;;
7517;SDS011;3800;48.922;9.444;2022-12-07T03:38:18;10.23;;;8.90;;
7517;SDS011;3800;48.922;9.444;2022-12-07T03:40:47;11.27;;;9.37;;
7517;SDS011;3800;48.922;9.444;2022-12-07T03:43:12;12.13;;;9.73;;
7517;SDS011;3800;48.922;9.444;2022-12-07T03:45:41;12.23;;;9.80;;
7517;SDS011;3800;48.922;9.444;2022-12-07T03:49:23;11.43;;;9.50;;
7517;SDS011;3800;48.922;9.444;2022-12-07T03:50:57;12.93;;;9.73;;
7517;SDS011;3800;48.922;9.444;2022-12-07T03:53:26;13.40;;;9.67;;
7517;SDS011;3800;48.922;9.444;2022-12-07T03:55:52;11.67;;;9.50;;
7517;SDS011;3800;48.922;9.444;2022-12-07T03:58:20;12.50;;;10.63;;
7517;SDS011;3800;48.922;9.444;2022-12-07T04:00:47;12.30;;;10.33;;
7517;SDS011;3800;48.922;9.444;2022-12-07T04:03:15;11.37;;;10.17;;
7517;SDS011;3800;48.922;9.444;2022-12-07T04:05:42;13.27;;;10.30;;
7517;SDS011;3800;48.922;9.444;2022-12-07T04:08:11;12.73;;;10.83;;
7517;SDS011;3800;48.922;9.444;2022-12-07T04:10:38;15.70;;;11.10;;
7517;SDS011;3800;48.922;9.444;2022-12-07T04:13:06;12.17;;;10.10;;
7517;SDS011;3800;48.922;9.444;2022-12-07T04:15:34;14.73;;;10.67;;
7517;SDS011;3800;48.922;9.444;2022-12-07T04:18:01;13.53;;;10.77;;
7517;SDS011;3800;48.922;9.444;2022-12-07T04:20:29;13.57;;;10.53;;
7517;SDS011;3800;48.922;9.444;2022-12-07T04:22:57;11.83;;;10.17;;
7517;SDS011;3800;48.922;9.444;2022-12-07T04:25:25;14.90;;;10.77;;
7517;SDS011;3800;48.922;9.444;2022-12-07T04:27:53;13.30;;;11.50;;
7517;SDS011;3800;48.922;9.444;2022-12-07T04:30:20;12.37;;;9.83;;
7517;SDS011;3800;48.922;9.444;2022-12-07T04:32:48;11.83;;;10.40;;
7517;SDS011;3800;48.922;9.444;2022-12-07T04:35:16;13.03;;;10.37;;
7517;SDS011;3800;48.922;9.444;2022-12-07T04:37:44;13.23;;;10.20;;
7517;SDS011;3800;48.922;9.444;2022-12-07T04:40:11;13.20;;;10.57;;
7517;SDS011;3800;48.922;9.444;2022-12-07T04:42:39;11.30;;;10.10;;
7517;SDS011;3800;48.922;9.444;2022-12-07T04:45:07;13.80;;;10.23;;
7517;SDS011;3800;48.922;9.444;2022-12-07T04:47:35;11.30;;;9.50;;
7517;SDS011;3800;48.922;9.444;2022-12-07T04:50:03;12.77;;;11.00;;
7517;SDS011;3800;48.922;9.444;2022-12-07T04:52:31;12.43;;;10.07;;
7517;SDS011;3800;48.922;9.444;2022-12-07T04:54:59;12.47;;;10.37;;
7517;SDS011;3800;48.922;9.444;2022-12-07T04:57:26;12.47;;;10.40;;
7517;SDS011;3800;48.922;9.444;2022-12-07T04:59:54;14.03;;;11.10;;
7517;SDS011;3800;48.922;9.444;2022-12-07T05:02:21;11.70;;;10.00;;
7517;SDS011;3800;48.922;9.444;2022-12-07T05:04:49;11.50;;;10.23;;
7517;SDS011;3800;48.922;9.444;2022-12-07T05:07:17;12.70;;;10.67;;
7517;SDS011;3800;48.922;9.444;2022-12-07T05:09:44;13.40;;;10.77;;
7517;SDS011;3800;48.922;9.444;2022-12-07T05:12:12;12.50;;;9.93;;
7517;SDS011;3800;48.922;9.444;2022-12-07T05:14:40;12.10;;;9.90;;
7517;SDS011;3800;48.922;9.444;2022-12-07T05:17:08;13.07;;;10.70;;
7517;SDS011;3800;48.922;9.444;2022-12-07T05:19:36;11.73;;;9.70;;
7517;SDS011;3800;48.922;9.444;2022-12-07T05:22:03;11.03;;;9.83;;
7517;SDS011;3800;48.922;9.444;2022-12-07T05:24:31;10.50;;;9.40;;
7517;SDS011;3800;48.922;9.444;2022-12-07T05:26:59;14.07;;;10.37;;
7517;SDS011;3800;48.922;9.444;2022-12-07T05:29:26;12.03;;;10.30;;
7517;SDS011;3800;48.922;9.444;2022-12-07T05:31:54;12.57;;;9.80;;
7517;SDS011;3800;48.922;9.444;2022-12-07T05:34:21;11.37;;;10.17;;
7517;SDS011;3800;48.922;9.444;2022-12-07T05:36:49;11.43;;;10.23;;
7517;SDS011;3800;48.922;9.444;2022-12-07T05:39:17;12.47;;;11.17;;
7517;SDS011;3800;48.922;9.444;2022-12-07T05:41:45;12.40;;;10.50;;
7517;SDS011;3800;48.922;9.444;2022-12-07T05:44:18;14.03;;;11.47;;
7517;SDS011;3800;48.922;9.444;2022-12-07T05:46:46;14.37;;;11.53;;
7517;SDS011;3800;48.922;9.444;2022-12-07T05:49:13;13.27;;;10.67;;
7517;SDS011;3800;48.922;9.444;2022-12-07T05:51:41;11.77;;;10.27;;
7517;SDS011;3800;48.922;9.444;2022-12-07T05:54:09;12.47;;;10.53;;
7517;SDS011;3800;48.922;9.444;2022-12-07T05:56:37;11.67;;;10.43;;
7517;SDS011;3800;48.922;9.444;2022-12-07T05:59:05;12.03;;;10.30;;
7517;SDS011;3800;48.922;9.444;2022-12-07T06:01:38;18.57;;;16.10;;
7517;SDS011;3800;48.922;9.444;2022-12-07T06:04:06;20.10;;;17.23;;
7517;SDS011;3800;48.922;9.444;2022-12-07T06:06:33;22.27;;;17.93;;
7517;SDS011;3800;48.922;9.444;2022-12-07T06:09:01;21.87;;;16.93;;
7517;SDS011;3800;48.922;9.444;2022-12-07T06:11:28;18.77;;;14.63;;
7517;SDS011;3800;48.922;9.444;2022-12-07T06:14:02;31.97;;;24.07;;
7517;SDS011;3800;48.922;9.444;2022-12-07T06:16:30;24.93;;;21.93;;
7517;SDS011;3800;48.922;9.444;2022-12-07T06:18:57;19.53;;;16.60;;
7517;SDS011;3800;48.922;9.444;2022-12-07T06:21:25;19.17;;;15.50;;
7517;SDS011;3800;48.922;9.444;2022-12-07T06:23:54;16.23;;;13.37;;
7517;SDS011;3800;48.922;9.444;2022-12-07T06:26:21;14.00;;;11.60;;
7517;SDS011;3800;48.922;9.444;2022-12-07T06:28:49;13.13;;;11.37;;
7517;SDS011;3800;48.922;9.444;2022-12-07T06:31:17;15.73;;;12.53;;
7517;SDS011;3800;48.922;9.444;2022-12-07T06:33:46;16.77;;;14.13;;
7517;SDS011;3800;48.922;9.444;2022-12-07T06:36:13;13.83;;;11.63;;
7517;SDS011;3800;48.922;9.444;2022-12-07T06:38:41;14.20;;;11.70;;
7517;SDS011;3800;48.922;9.444;2022-12-07T06:41:09;14.53;;;10.90;;
7517;SDS011;3800;48.922;9.444;2022-12-07T06:43:36;12.97;;;11.57;;
7517;SDS011;3800;48.922;9.444;2022-12-07T06:46:04;13.83;;;11.23;;
7517;SDS011;3800;48.922;9.444;2022-12-07T06:48:32;13.73;;;11.00;;
7517;SDS011;3800;48.922;9.444;2022-12-07T06:50:59;17.90;;;13.27;;
7517;SDS011;3800;48.922;9.444;2022-12-07T06:53:27;16.97;;;13.03;;
7517;SDS011;3800;48.922;9.444;2022-12-07T06:55:54;15.77;;;12.23;;
7517;SDS011;3800;48.922;9.444;2022-12-07T06:58:22;15.10;;;11.10;;
7517;SDS011;3800;48.922;9.444;2022-12-07T07:00:50;12.57;;;10.83;;
7517;SDS011;3800;48.922;9.444;2022-12-07T07:03:17;13.40;;;11.30;;
7517;SDS011;3800;48.922;9.444;2022-12-07T07:05:45;13.30;;;11.30;;
7517;SDS011;3800;48.922;9.444;2022-12-07T07:08:13;13.60;;;10.87;;
7517;SDS011;3800;48.922;9.444;2022-12-07T07:10:40;15.53;;;10.77;;
7517;SDS011;3800;48.922;9.444;2022-12-07T07:13:09;13.10;;;11.00;;
7517;SDS011;3800;48.922;9.444;2022-12-07T07:15:37;13.20;;;11.63;;
7517;SDS011;3800;48.922;9.444;2022-12-07T07:18:04;16.10;;;13.07;;
7517;SDS011;3800;48.922;9.444;2022-12-07T07:20:32;13.97;;;12.10;;
7517;SDS011;3800;48.922;9.444;2022-12-07T07:22:59;13.77;;;11.17;;
7517;SDS011;3800;48.922;9.444;2022-12-07T07:25:28;14.67;;;10.93;;
7517;SDS011;3800;48.922;9.444;2022-12-07T07:27:55;14.00;;;10.90;;
7517;SDS011;3800;48.922;9.444;2022-12-07T07:30:23;13.40;;;11.40;;
7517;SDS011;3800;48.922;9.444;2022-12-07T07:32:51;17.60;;;13.00;;
7517;SDS011;3800;48.922;9.444;2022-12-07T07:35:18;16.73;;;13.33;;
7517;SDS011;3800;48.922;9.444;2022-12-07T07:37:47;14.70;;;11.53;;
7517;SDS011;3800;48.922;9.444;2022-12-07T07:40:14;16.50;;;11.97;;
7517;SDS011;3800;48.922;9.444;2022-12-07T07:42:42;13.30;;;11.07;;
7517;SDS011;3800;48.922;9.444;2022-12-07T07:45:10;12.03;;;10.53;;
7517;SDS011;3800;48.922;9.444;2022-12-07T07:47:37;14.37;;;11.17;;
7517;SDS011;3800;48.922;9.444;2022-12-07T07:50:07;13.77;;;10.43;;
7517;SDS011;3800;48.922;9.444;2022-12-07T07:52:35;13.20;;;10.40;;
7517;SDS011;3800;48.922;9.444;2022-12-07T07:55:04;13.33;;;10.90;;
7517;SDS011;3800;48.922;9.444;2022-12-07T07:57:32;15.10;;;10.80;;
7517;SDS011;3800;48.922;9.444;2022-12-07T08:00:00;13.90;;;11.73;;
7517;SDS011;3800;48.922;9.444;2022-12-07T08:02:28;13.47;;;10.77;;
7517;SDS011;3800;48.922;9.444;2022-12-07T08:04:55;13.57;;;11.00;;
7517;SDS011;3800;48.922;9.444;2022-12-07T08:07:23;12.27;;;10.33;;
7517;SDS011;3800;48.922;9.444;2022-12-07T08:09:52;13.20;;;10.43;;
7517;SDS011;3800;48.922;9.444;2022-12-07T08:12:20;15.57;;;12.07;;
7517;SDS011;3800;48.922;9.444;2022-12-07T08:14:48;13.60;;;11.57;;
7517;SDS011;3800;48.922;9.444;2022-12-07T08:17:16;14.17;;;10.77;;
7517;SDS011;3800;48.922;9.444;2022-12-07T08:19:44;13.57;;;10.40;;
7517;SDS011;3800;48.922;9.444;2022-12-07T08:22:11;13.27;;;10.80;;
7517;SDS011;3800;48.922;9.444;2022-12-07T08:24:39;15.83;;;11.80;;
7517;SDS011;3800;48.922;9.444;2022-12-07T08:27:07;13.17;;;10.30;;
7517;SDS011;3800;48.922;9.444;2022-12-07T08:29:34;11.50;;;9.73;;
7517;SDS011;3800;48.922;9.444;2022-12-07T08:32:02;12.53;;;10.43;;
7517;SDS011;3800;48.922;9.444;2022-12-07T08:34:30;11.27;;;9.73;;
7517;SDS011;3800;48.922;9.444;2022-12-07T08:36:58;13.03;;;9.63;;
7517;SDS011;3800;48.922;9.444;2022-12-07T08:39:25;11.83;;;9.80;;
7517;SDS011;3800;48.922;9.444;2022-12-07T08:41:54;11.10;;;9.20;;
7517;SDS011;3800;48.922;9.444;2022-12-07T08:44:23;12.00;;;10.03;;
7517;SDS011;3800;48.922;9.444;2022-12-07T08:46:53;11.57;;;9.50;;
7517;SDS011;3800;48.922;9.444;2022-12-07T08:49:24;11.07;;;8.57;;
7517;SDS011;3800;48.922;9.444;2022-12-07T08:51:50;10.60;;;8.50;;
7517;SDS011;3800;48.922;9.444;2022-12-07T08:54:18;10.90;;;9.53;;
7517;SDS011;3800;48.922;9.444;2022-12-07T08:56:46;11.43;;;8.80;;
7517;SDS011;3800;48.922;9.444;2022-12-07T08:59:13;11.10;;;9.20;;
7517;SDS011;3800;48.922;9.444;2022-12-07T09:01:41;11.07;;;9.13;;
7517;SDS011;3800;48.922;9.444;2022-12-07T09:04:08;13.47;;;9.60;;
7517;SDS011;3800;48.922;9.444;2022-12-07T09:06:36;10.90;;;9.03;;
7517;SDS011;3800;48.922;9.444;2022-12-07T09:09:03;10.70;;;9.03;;
7517;SDS011;3800;48.922;9.444;2022-12-07T09:11:31;12.10;;;9.57;;
7517;SDS011;3800;48.922;9.444;2022-12-07T09:13:59;11.57;;;9.33;;
7517;SDS011;3800;48.922;9.444;2022-12-07T09:16:26;9.53;;;8.30;;
7517;SDS011;3800;48.922;9.444;2022-12-07T09:18:54;10.73;;;9.10;;
7517;SDS011;3800;48.922;9.444;2022-12-07T09:21:22;11.43;;;9.60;;
7517;SDS011;3800;48.922;9.444;2022-12-07T09:23:49;11.33;;;8.73;;
7517;SDS011;3800;48.922;9.444;2022-12-07T09:26:17;10.17;;;9.00;;
7517;SDS011;3800;48.922;9.444;2022-12-07T09:28:45;9.67;;;8.60;;
7517;SDS011;3800;48.922;9.444;2022-12-07T09:31:12;12.47;;;8.70;;
7517;SDS011;3800;48.922;9.444;2022-12-07T09:33:40;9.40;;;8.40;;
7517;SDS011;3800;48.922;9.444;2022-12-07T09:36:08;11.33;;;9.33;;
7517;SDS011;3800;48.922;9.444;2022-12-07T09:38:35;9.00;;;7.80;;
7517;SDS011;3800;48.922;9.444;2022-12-07T09:41:05;11.80;;;8.80;;
7517;SDS011;3800;48.922;9.444;2022-12-07T09:43:33;11.40;;;8.73;;
7517;SDS011;3800;48.922;9.444;2022-12-07T09:46:00;10.67;;;8.80;;
7517;SDS011;3800;48.922;9.444;2022-12-07T09:48:30;9.57;;;8.07;;
7517;SDS011;3800;48.922;9.444;2022-12-07T09:50:57;10.27;;;8.00;;
7517;SDS011;3800;48.922;9.444;2022-12-07T09:53:25;10.97;;;8.23;;
7517;SDS011;3800;48.922;9.444;2022-12-07T09:55:51;11.60;;;8.90;;
7517;SDS011;3800;48.922;9.444;2022-12-07T09:58:20;9.00;;;7.60;;
7517;SDS011;3800;48.922;9.444;2022-12-07T10:00:48;10.40;;;8.10;;
7517;SDS011;3800;48.922;9.444;2022-12-07T10:03:15;8.97;;;7.77;;
7517;SDS011;3800;48.922;9.444;2022-12-07T10:05:44;10.50;;;8.10;;
7517;SDS011;3800;48.922;9.444;2022-12-07T10:08:12;9.30;;;7.90;;
7517;SDS011;3800;48.922;9.444;2022-12-07T10:10:40;12.13;;;8.13;;
7517;SDS011;3800;48.922;9.444;2022-12-07T10:13:08;12.87;;;8.40;;
7517;SDS011;3800;48.922;9.444;2022-12-07T10:15:43;11.73;;;8.20;;
7517;SDS011;3800;48.922;9.444;2022-12-07T10:20:45;10.63;;;8.73;;
7517;SDS011;3800;48.922;9.444;2022-12-07T10:23:14;11.73;;;8.90;;
7517;SDS011;3800;48.922;9.444;2022-12-07T10:25:41;10.07;;;8.27;;
7517;SDS011;3800;48.922;9.444;2022-12-07T10:28:11;10.20;;;8.00;;
7517;SDS011;3800;48.922;9.444;2022-12-07T10:35:52;9.80;;;8.00;;
7517;SDS011;3800;48.922;9.444;2022-12-07T10:38:20;10.43;;;8.53;;
7517;SDS011;3800;48.922;9.444;2022-12-07T10:40:47;9.60;;;7.33;;
7517;SDS011;3800;48.922;9.444;2022-12-07T10:43:17;8.30;;;7.33;;
7517;SDS011;3800;48.922;9.444;2022-12-07T10:49:04;6.33;;;5.30;;
7517;SDS011;3800;48.922;9.444;2022-12-07T10:51:34;7.83;;;6.00;;
7517;SDS011;3800;48.922;9.444;2022-12-07T10:54:06;7.07;;;5.37;;
7517;SDS011;3800;48.922;9.444;2022-12-07T10:56:52;6.53;;;5.50;;
7517;SDS011;3800;48.922;9.444;2022-12-07T10:59:27;9.03;;;5.80;;
7517;SDS011;3800;48.922;9.444;2022-12-07T11:02:15;7.20;;;6.10;;
7517;SDS011;3800;48.922;9.444;2022-12-07T11:05:03;8.00;;;6.13;;
7517;SDS011;3800;48.922;9.444;2022-12-07T11:07:51;6.57;;;5.73;;
7517;SDS011;3800;48.922;9.444;2022-12-07T11:13:29;8.43;;;6.60;;
7517;SDS011;3800;48.922;9.444;2022-12-07T11:16:00;9.47;;;6.00;;
7517;SDS011;3800;48.922;9.444;2022-12-07T11:18:33;8.33;;;6.57;;
7517;SDS011;3800;48.922;9.444;2022-12-07T11:21:21;8.93;;;6.63;;
7517;SDS011;3800;48.922;9.444;2022-12-07T11:24:20;7.10;;;6.40;;
7517;SDS011;3800;48.922;9.444;2022-12-07T11:27:07;9.03;;;6.00;;
7517;SDS011;3800;48.922;9.444;2022-12-07T11:29:33;7.10;;;5.97;;
7517;SDS011;3800;48.922;9.444;2022-12-07T11:31:59;8.33;;;6.17;;
7517;SDS011;3800;48.922;9.444;2022-12-07T11:37:15;9.97;;;7.00;;
7517;SDS011;3800;48.922;9.444;2022-12-07T11:39:44;13.40;;;6.23;;
7517;SDS011;3800;48.922;9.444;2022-12-07T11:42:18;7.33;;;6.53;;
7517;SDS011;3800;48.922;9.444;2022-12-07T11:45:00;7.50;;;6.47;;
7517;SDS011;3800;48.922;9.444;2022-12-07T11:47:47;8.37;;;6.83;;
7517;SDS011;3800;48.922;9.444;2022-12-07T11:50:21;8.07;;;7.13;;
7517;SDS011;3800;48.922;9.444;2022-12-07T11:53:10;8.67;;;6.80;;
7517;SDS011;3800;48.922;9.444;2022-12-07T12:01:08;9.07;;;7.20;;
7517;SDS011;3800;48.922;9.444;2022-12-07T12:03:49;10.70;;;7.97;;
7517;SDS011;3800;48.922;9.444;2022-12-07T12:06:18;9.73;;;7.90;;
7517;SDS011;3800;48.922;9.444;2022-12-07T12:08:47;8.93;;;7.67;;
7517;SDS011;3800;48.922;9.444;2022-12-07T12:11:19;8.97;;;7.57;;
7517;SDS011;3800;48.922;9.444;2022-12-07T12:13:51;9.13;;;8.13;;
7517;SDS011;3800;48.922;9.444;2022-12-07T12:17:29;11.13;;;8.70;;
7517;SDS011;3800;48.922;9.444;2022-12-07T12:19:07;10.27;;;8.30;;
7517;SDS011;3800;48.922;9.444;2022-12-07T12:21:33;11.90;;;8.80;;
7517;SDS011;3800;48.922;9.444;2022-12-07T12:24:17;10.00;;;8.37;;
7517;SDS011;3800;48.922;9.444;2022-12-07T12:26:48;11.37;;;8.10;;
7517;SDS011;3800;48.922;9.444;2022-12-07T12:29:22;10.13;;;8.03;;
7517;SDS011;3800;48.922;9.444;2022-12-07T12:32:04;10.23;;;8.10;;
7517;SDS011;3800;48.922;9.444;2022-12-07T12:36:55;10.93;;;8.93;;
7517;SDS011;3800;48.922;9.444;2022-12-07T12:39:23;11.10;;;8.90;;
7517;SDS011;3800;48.922;9.444;2022-12-07T12:41:52;10.40;;;8.17;;
7517;SDS011;3800;48.922;9.444;2022-12-07T12:44:39;11.53;;;10.10;;
7517;SDS011;3800;48.922;9.444;2022-12-07T12:52:57;11.27;;;9.20;;
7517;SDS011;3800;48.922;9.444;2022-12-07T12:56:05;12.17;;;9.10;;
7517;SDS011;3800;48.922;9.444;2022-12-07T12:58:28;10.33;;;8.57;;
7517;SDS011;3800;48.922;9.444;2022-12-07T13:03:51;12.47;;;9.33;;
7517;SDS011;3800;48.922;9.444;2022-12-07T13:06:35;15.07;;;9.53;;
7517;SDS011;3800;48.922;9.444;2022-12-07T13:09:04;13.53;;;9.93;;
7517;SDS011;3800;48.922;9.444;2022-12-07T13:11:34;11.33;;;8.63;;
7517;SDS011;3800;48.922;9.444;2022-12-07T13:16:43;13.60;;;10.60;;
7517;SDS011;3800;48.922;9.444;2022-12-07T13:21:51;11.00;;;9.80;;
7517;SDS011;3800;48.922;9.444;2022-12-07T13:24:19;12.67;;;9.37;;
7517;SDS011;3800;48.922;9.444;2022-12-07T13:26:47;11.80;;;10.03;;
7517;SDS011;3800;48.922;9.444;2022-12-07T13:29:15;11.57;;;9.40;;
7517;SDS011;3800;48.922;9.444;2022-12-07T13:31:44;12.87;;;10.00;;
7517;SDS011;3800;48.922;9.444;2022-12-07T13:36:52;12.93;;;9.97;;
7517;SDS011;3800;48.922;9.444;2022-12-07T13:39:20;14.63;;;9.87;;
7517;SDS011;3800;48.922;9.444;2022-12-07T13:41:51;12.63;;;9.47;;
7517;SDS011;3800;48.922;9.444;2022-12-07T13:44:18;12.33;;;9.73;;
7517;SDS011;3800;48.922;9.444;2022-12-07T13:46:51;11.37;;;9.20;;
7517;SDS011;3800;48.922;9.444;2022-12-07T13:49:38;12.57;;;9.57;;
7517;SDS011;3800;48.922;9.444;2022-12-07T13:54:44;14.00;;;9.87;;
7517;SDS011;3800;48.922;9.444;2022-12-07T13:57:15;11.77;;;9.63;;
7517;SDS011;3800;48.922;9.444;2022-12-07T13:59:43;12.70;;;9.50;;
7517;SDS011;3800;48.922;9.444;2022-12-07T14:02:18;14.37;;;10.23;;
7517;SDS011;3800;48.922;9.444;2022-12-07T14:04:45;10.60;;;9.40;;
7517;SDS011;3800;48.922;9.444;2022-12-07T14:07:23;12.13;;;9.73;;
7517;SDS011;3800;48.922;9.444;2022-12-07T14:09:53;11.40;;;9.57;;
7517;SDS011;3800;48.922;9.444;2022-12-07T14:12:20;12.10;;;9.50;;
7517;SDS011;3800;48.922;9.444;2022-12-07T14:14:48;11.97;;;9.10;;
7517;SDS011;3800;48.922;9.444;2022-12-07T14:17:17;11.70;;;9.47;;
7517;SDS011;3800;48.922;9.444;2022-12-07T14:19:45;11.97;;;9.43;;
7517;SDS011;3800;48.922;9.444;2022-12-07T14:22:24;10.40;;;8.97;;
7517;SDS011;3800;48.922;9.444;2022-12-07T14:24:51;12.83;;;10.93;;
7517;SDS011;3800;48.922;9.444;2022-12-07T14:27:19;11.33;;;9.50;;
7517;SDS011;3800;48.922;9.444;2022-12-07T14:29:48;10.93;;;9.53;;
7517;SDS011;3800;48.922;9.444;2022-12-07T14:32:24;14.17;;;9.93;;
7517;SDS011;3800;48.922;9.444;2022-12-07T14:34:56;12.80;;;10.07;;
7517;SDS011;3800;48.922;9.444;2022-12-07T14:37:25;14.17;;;10.00;;
7517;SDS011;3800;48.922;9.444;2022-12-07T14:39:53;13.47;;;10.40;;
7517;SDS011;3800;48.922;9.444;2022-12-07T14:42:20;11.93;;;10.37;;
7517;SDS011;3800;48.922;9.444;2022-12-07T14:44:48;15.60;;;10.87;;
7517;SDS011;3800;48.922;9.444;2022-12-07T14:47:16;13.23;;;10.07;;
7517;SDS011;3800;48.922;9.444;2022-12-07T14:49:43;15.13;;;12.00;;
7517;SDS011;3800;48.922;9.444;2022-12-07T14:52:13;15.93;;;11.20;;
7517;SDS011;3800;48.922;9.444;2022-12-07T14:54:40;15.60;;;11.10;;
7517;SDS011;3800;48.922;9.444;2022-12-07T14:57:09;13.33;;;11.13;;
7517;SDS011;3800;48.922;9.444;2022-12-07T14:59:37;12.63;;;10.33;;
7517;SDS011;3800;48.922;9.444;2022-12-07T15:02:05;13.93;;;10.10;;
7517;SDS011;3800;48.922;9.444;2022-12-07T15:04:32;13.33;;;11.07;;
7517;SDS011;3800;48.922;9.444;2022-12-07T15:07:01;15.47;;;10.90;;
7517;SDS011;3800;48.922;9.444;2022-12-07T15:09:28;13.80;;;10.60;;
7517;SDS011;3800;48.922;9.444;2022-12-07T15:11:56;15.03;;;10.37;;
7517;SDS011;3800;48.922;9.444;2022-12-07T15:14:24;13.07;;;10.53;;
7517;SDS011;3800;48.922;9.444;2022-12-07T15:16:51;14.27;;;11.27;;
7517;SDS011;3800;48.922;9.444;2022-12-07T15:19:20;12.37;;;10.40;;
7517;SDS011;3800;48.922;9.444;2022-12-07T15:21:47;13.17;;;10.43;;
7517;SDS011;3800;48.922;9.444;2022-12-07T15:24:15;12.83;;;11.17;;
7517;SDS011;3800;48.922;9.444;2022-12-07T15:26:43;14.70;;;10.90;;
7517;SDS011;3800;48.922;9.444;2022-12-07T15:29:10;13.70;;;11.20;;
7517;SDS011;3800;48.922;9.444;2022-12-07T15:31:38;18.03;;;11.63;;
7517;SDS011;3800;48.922;9.444;2022-12-07T15:34:05;14.40;;;11.80;;
7517;SDS011;3800;48.922;9.444;2022-12-07T15:36:34;13.97;;;10.67;;
7517;SDS011;3800;48.922;9.444;2022-12-07T15:39:02;19.73;;;13.40;;
7517;SDS011;3800;48.922;9.444;2022-12-07T15:41:29;16.37;;;12.43;;
7517;SDS011;3800;48.922;9.444;2022-12-07T15:43:58;15.60;;;12.13;;
7517;SDS011;3800;48.922;9.444;2022-12-07T15:46:33;17.67;;;12.47;;
7517;SDS011;3800;48.922;9.444;2022-12-07T15:49:00;14.37;;;11.13;;
7517;SDS011;3800;48.922;9.444;2022-12-07T15:51:28;17.33;;;12.90;;
7517;SDS011;3800;48.922;9.444;2022-12-07T15:53:57;12.50;;;10.57;;
7517;SDS011;3800;48.922;9.444;2022-12-07T15:56:24;19.03;;;12.50;;
7517;SDS011;3800;48.922;9.444;2022-12-07T15:58:52;16.23;;;11.73;;
7517;SDS011;3800;48.922;9.444;2022-12-07T16:01:19;15.70;;;11.63;;
7517;SDS011;3800;48.922;9.444;2022-12-07T16:03:47;17.40;;;12.77;;